createdAt,value
2019-05-04T00:02:05.941Z,4.95
2019-05-04T00:04:42.319Z,6.22
2019-05-04T00:07:10.870Z,5.40
2019-05-04T00:09:39.497Z,5.28
2019-05-04T00:12:08.037Z,4.78
2019-05-04T00:14:36.579Z,4.33
2019-05-04T00:17:05.586Z,4.25
2019-05-04T00:19:35.111Z,6.78
2019-05-04T00:22:04.965Z,7.00
2019-05-04T00:24:35.236Z,5.08
2019-05-04T00:27:04.715Z,4.85
2019-05-04T00:29:35.256Z,6.00
2019-05-04T00:32:05.121Z,4.00
2019-05-04T00:34:35.604Z,5.22
2019-05-04T00:37:08.123Z,5.10
2019-05-04T00:39:36.427Z,5.08
2019-05-04T00:42:05.990Z,3.87
2019-05-04T00:44:34.883Z,4.50
2019-05-04T00:47:05.094Z,5.62
2019-05-04T00:49:34.653Z,5.00
2019-05-04T00:52:05.638Z,6.70
2019-05-04T00:54:35.631Z,5.28
2019-05-04T00:57:05.132Z,4.83
2019-05-04T00:59:35.064Z,4.55
2019-05-04T01:02:05.790Z,3.58
2019-05-04T01:04:35.464Z,9.60
2019-05-04T01:07:16.905Z,5.80
2019-05-04T01:09:35.934Z,5.12
2019-05-04T01:12:05.398Z,6.78
2019-05-04T01:14:34.933Z,6.60
2019-05-04T01:17:05.538Z,6.70
2019-05-04T01:19:35.533Z,7.70
2019-05-04T01:22:04.992Z,7.03
2019-05-04T01:24:34.687Z,6.35
2019-05-04T01:27:05.692Z,5.70
2019-05-04T01:29:35.464Z,7.53
2019-05-04T01:32:05.092Z,6.97
2019-05-04T01:34:41.217Z,6.08
2019-05-04T01:37:31.908Z,8.35
2019-05-04T01:39:58.564Z,6.65
2019-05-04T01:42:27.182Z,10.08
2019-05-04T01:44:55.780Z,7.87
2019-05-04T01:47:25.864Z,6.08
2019-05-04T01:49:55.344Z,7.10
2019-05-04T01:52:24.968Z,5.45
2019-05-04T01:54:54.829Z,3.95
2019-05-04T01:57:25.825Z,4.87
2019-05-04T01:59:55.909Z,4.40
2019-05-04T02:02:26.528Z,7.45
2019-05-04T02:04:55.594Z,5.62
2019-05-04T02:07:25.414Z,5.65
2019-05-04T02:09:55.140Z,7.08
2019-05-04T02:12:25.646Z,5.05
2019-05-04T02:14:54.905Z,3.60
2019-05-04T02:17:24.744Z,9.03
2019-05-04T02:19:55.514Z,10.43
2019-05-04T02:22:28.145Z,5.55
2019-05-04T02:24:58.332Z,5.50
2019-05-04T02:27:40.479Z,6.87
2019-05-04T02:30:11.717Z,8.70
2019-05-04T02:32:40.235Z,8.25
2019-05-04T02:35:09.015Z,10.13
2019-05-04T02:37:37.580Z,6.87
2019-05-04T02:40:09.199Z,7.60
2019-05-04T02:42:37.745Z,6.60
2019-05-04T02:45:07.610Z,9.43
2019-05-04T02:47:40.632Z,10.23
2019-05-04T02:50:16.051Z,9.15
2019-05-04T02:52:46.034Z,11.93
2019-05-04T02:55:15.547Z,8.55
2019-05-04T02:57:45.573Z,7.85
2019-05-04T03:00:16.108Z,6.67
2019-05-04T03:02:45.611Z,13.65
2019-05-04T03:05:15.796Z,7.90
2019-05-04T03:07:46.386Z,6.00
2019-05-04T03:10:15.401Z,6.33
2019-05-04T03:12:46.043Z,5.17
2019-05-04T03:15:15.762Z,6.15
2019-05-04T03:17:48.884Z,8.48
2019-05-04T03:20:21.951Z,8.25
2019-05-04T03:22:55.691Z,7.37
2019-05-04T03:25:22.512Z,5.35
2019-05-04T03:27:51.126Z,6.85
2019-05-04T03:30:27.831Z,8.43
2019-05-04T03:32:57.961Z,8.93
2019-05-04T03:35:40.850Z,6.15
2019-05-04T03:37:56.136Z,6.33
2019-05-04T03:40:26.162Z,7.12
2019-05-04T03:42:55.516Z,7.70
2019-05-04T03:45:45.319Z,5.67
2019-05-04T03:48:16.056Z,7.90
2019-05-04T03:50:48.915Z,8.95
2019-05-04T03:53:17.531Z,9.63
2019-05-04T03:55:46.077Z,6.53
2019-05-04T03:58:15.536Z,9.03
2019-05-04T04:00:46.197Z,9.90
2019-05-04T04:03:16.304Z,7.28
2019-05-04T04:05:46.292Z,5.90
2019-05-04T04:08:15.876Z,5.60
2019-05-04T04:10:45.854Z,7.47
2019-05-04T04:13:15.535Z,9.60
2019-05-04T04:15:46.067Z,9.30
2019-05-04T04:18:25.524Z,11.83
2019-05-04T04:20:55.683Z,12.80
2019-05-04T04:23:36.225Z,8.78
2019-05-04T04:26:25.769Z,9.70
2019-05-04T04:28:55.728Z,10.00
2019-05-04T04:31:26.078Z,8.48
2019-05-04T04:34:00.834Z,7.50
2019-05-04T04:36:25.834Z,10.38
2019-05-04T04:38:56.583Z,7.35
2019-05-04T04:41:25.396Z,12.13
2019-05-04T04:43:56.131Z,9.13
2019-05-04T04:46:25.653Z,11.50
2019-05-04T04:48:55.746Z,8.20
2019-05-04T04:51:26.427Z,11.43
2019-05-04T04:53:56.326Z,9.83
2019-05-04T04:56:26.918Z,10.58
2019-05-04T04:58:57.167Z,9.48
2019-05-04T05:01:27.417Z,11.45
2019-05-04T05:03:55.955Z,9.45
2019-05-04T05:06:25.887Z,11.57
2019-05-04T05:08:55.580Z,11.48
2019-05-04T05:11:25.661Z,9.23
2019-05-04T05:13:55.031Z,12.15
2019-05-04T05:16:25.411Z,9.05
2019-05-04T05:18:54.256Z,9.65
2019-05-04T05:21:27.309Z,9.30
2019-05-04T05:23:55.974Z,7.10
2019-05-04T05:26:24.829Z,8.70
2019-05-04T05:28:55.469Z,9.00
2019-05-04T05:31:25.667Z,9.68
2019-05-04T05:33:58.585Z,10.93
2019-05-04T05:36:28.852Z,8.75
2019-05-04T05:38:57.464Z,9.80
2019-05-04T05:41:26.655Z,8.70
2019-05-04T05:43:59.281Z,8.20
2019-05-04T05:46:28.938Z,6.97
2019-05-04T05:49:19.056Z,10.00
2019-05-04T05:52:01.729Z,6.55
2019-05-04T05:54:44.740Z,8.03
2019-05-04T05:57:16.037Z,10.55
2019-05-04T06:00:02.700Z,9.95
2019-05-04T06:02:49.632Z,8.30
2019-05-04T06:05:23.591Z,7.62
2019-05-04T06:07:51.086Z,7.53
2019-05-04T06:10:35.192Z,7.63
2019-05-04T06:13:17.462Z,9.77
2019-05-04T06:15:50.728Z,8.45
2019-05-04T06:18:20.975Z,7.27
2019-05-04T06:20:54.710Z,7.93
2019-05-04T06:23:39.087Z,6.13
2019-05-04T06:26:09.271Z,6.40
2019-05-04T06:28:39.543Z,6.10
2019-05-04T06:31:14.934Z,6.70
2019-05-04T06:33:44.519Z,6.63
2019-05-04T06:36:30.942Z,7.73
2019-05-04T06:39:19.737Z,6.80
2019-05-04T06:41:48.079Z,7.20
2019-05-04T06:44:24.817Z,4.90
2019-05-04T06:46:56.046Z,9.60
2019-05-04T06:49:25.181Z,6.20
2019-05-04T06:51:58.743Z,4.90
2019-05-04T06:54:43.299Z,4.33
2019-05-04T06:57:07.265Z,5.30
2019-05-04T06:59:35.761Z,4.03
2019-05-04T07:02:04.705Z,4.97
2019-05-04T07:04:35.150Z,5.00
2019-05-04T07:07:04.350Z,5.70
2019-05-04T07:09:45.702Z,6.83
2019-05-04T07:12:10.423Z,9.33
2019-05-04T07:14:39.122Z,2.67
2019-05-04T07:17:09.496Z,2.83
2019-05-04T07:19:35.350Z,4.47
2019-05-04T07:22:07.115Z,4.73
2019-05-04T07:24:37.969Z,2.93
2019-05-04T07:27:04.565Z,4.43
2019-05-04T07:29:34.568Z,5.20
2019-05-04T07:32:11.227Z,3.67
2019-05-04T07:34:42.323Z,4.60
2019-05-04T07:37:37.114Z,4.23
2019-05-04T07:40:07.454Z,4.10
2019-05-04T07:42:33.397Z,6.33
2019-05-04T07:45:01.628Z,3.80
2019-05-04T07:47:30.403Z,3.93
2019-05-04T07:49:59.026Z,2.90
2019-05-04T07:52:28.467Z,3.60
2019-05-04T07:54:57.274Z,3.27
2019-05-04T07:57:28.674Z,3.60
2019-05-04T08:00:03.084Z,9.10
2019-05-04T08:02:26.847Z,3.23
2019-05-04T08:04:55.404Z,3.00
2019-05-04T08:07:24.955Z,3.80
2019-05-04T08:09:54.654Z,3.80
2019-05-04T08:12:56.350Z,3.40
2019-05-04T08:15:16.508Z,3.43
2019-05-04T08:17:45.125Z,6.60
2019-05-04T08:20:16.507Z,2.60
2019-05-04T08:22:50.268Z,4.03
2019-05-04T08:25:16.717Z,2.73
2019-05-04T08:27:45.380Z,3.30
2019-05-04T08:30:14.929Z,3.70
2019-05-04T08:32:47.894Z,4.40
2019-05-04T08:35:15.526Z,3.40
2019-05-04T08:37:44.908Z,4.10
2019-05-04T08:40:15.173Z,3.53
2019-05-04T08:42:47.874Z,2.43
2019-05-04T08:45:20.420Z,4.00
2019-05-04T08:47:54.776Z,2.63
2019-05-04T08:50:24.761Z,2.20
2019-05-04T08:53:02.223Z,4.03
2019-05-04T08:55:37.505Z,4.70
2019-05-04T08:58:05.502Z,8.73
2019-05-04T09:00:38.871Z,3.23
2019-05-04T09:03:11.441Z,7.33
2019-05-04T09:06:05.470Z,3.20
2019-05-04T09:08:16.420Z,3.13
2019-05-04T09:10:44.159Z,3.30
2019-05-04T09:13:09.837Z,4.63
2019-05-04T09:15:38.383Z,2.10
2019-05-04T09:18:06.990Z,2.73
2019-05-04T09:20:38.225Z,2.00
2019-05-04T09:23:05.788Z,3.63
2019-05-04T09:25:34.674Z,2.40
2019-05-04T09:28:11.906Z,2.27
2019-05-04T09:30:35.175Z,3.50
2019-05-04T09:33:05.662Z,6.30
2019-05-04T09:35:35.095Z,2.17
2019-05-04T09:38:04.472Z,1.77
2019-05-04T09:40:34.792Z,1.70
2019-05-04T09:43:12.780Z,2.50
2019-05-04T09:45:34.310Z,6.60
2019-05-04T09:48:06.765Z,2.30
2019-05-04T09:50:34.987Z,3.23
2019-05-04T09:53:17.482Z,10.90
2019-05-04T09:55:40.540Z,3.70
2019-05-04T09:58:24.666Z,1.87
2019-05-04T10:00:54.373Z,2.50
2019-05-04T10:03:22.212Z,2.63
2019-05-04T10:05:50.752Z,2.23
2019-05-04T10:08:19.351Z,2.40
2019-05-04T10:10:49.577Z,3.07
2019-05-04T10:13:34.904Z,1.90
2019-05-04T10:16:17.442Z,5.30
2019-05-04T10:18:47.692Z,2.03
2019-05-04T10:21:16.257Z,2.50
2019-05-04T10:23:45.276Z,2.20
2019-05-04T10:26:25.181Z,1.90
2019-05-04T10:28:56.019Z,2.77
2019-05-04T10:31:24.738Z,2.57
2019-05-04T10:33:55.410Z,2.07
2019-05-04T10:36:24.586Z,5.13
2019-05-04T10:38:54.954Z,2.60
2019-05-04T10:41:24.934Z,3.23
2019-05-04T10:43:54.639Z,2.70
2019-05-04T10:46:25.272Z,1.70
2019-05-04T10:48:54.232Z,2.17
2019-05-04T10:51:25.400Z,2.00
2019-05-04T10:53:54.367Z,1.57
2019-05-04T10:56:24.944Z,1.97
2019-05-04T10:58:54.363Z,2.40
2019-05-04T11:01:25.144Z,1.50
2019-05-04T11:03:54.795Z,1.87
2019-05-04T11:06:24.764Z,1.87
2019-05-04T11:08:54.430Z,2.00
2019-05-04T11:11:26.018Z,1.70
2019-05-04T11:14:02.700Z,2.13
2019-05-04T11:16:24.575Z,2.03
2019-05-04T11:18:54.578Z,3.93
2019-05-04T11:21:24.854Z,2.13
2019-05-04T11:23:55.024Z,2.93
2019-05-04T11:26:34.871Z,1.53
2019-05-04T11:29:05.104Z,1.80
2019-05-04T11:31:34.895Z,1.90
2019-05-04T11:34:05.117Z,5.63
2019-05-04T11:36:35.368Z,1.63
2019-05-04T11:39:07.625Z,4.87
2019-05-04T11:41:36.148Z,3.47
2019-05-04T11:44:04.932Z,2.37
2019-05-04T11:46:34.803Z,2.50
2019-05-04T11:49:04.638Z,3.70
2019-05-04T11:51:34.686Z,2.57
2019-05-04T11:54:04.923Z,5.13
2019-05-04T11:56:34.813Z,2.47
2019-05-04T11:59:05.410Z,1.93
2019-05-04T12:01:34.438Z,1.57
2019-05-04T12:04:07.687Z,3.10
2019-05-04T12:06:47.440Z,4.67
2019-05-04T12:09:20.724Z,2.50
2019-05-04T12:11:49.336Z,4.83
2019-05-04T12:14:17.898Z,2.77
2019-05-04T12:16:46.461Z,4.67
2019-05-04T12:19:14.984Z,2.13
2019-05-04T12:21:43.651Z,2.50
2019-05-04T12:24:14.214Z,2.33
2019-05-04T12:26:44.433Z,2.57
2019-05-04T12:29:12.700Z,3.27
2019-05-04T12:31:41.323Z,2.70
2019-05-04T12:34:09.869Z,2.90
2019-05-04T12:36:38.419Z,1.93
2019-05-04T12:39:07.028Z,1.50
2019-05-04T12:41:35.594Z,10.70
2019-05-04T12:44:05.452Z,3.70
2019-05-04T12:46:34.399Z,5.90
2019-05-04T12:49:04.768Z,5.63
2019-05-04T12:51:35.179Z,4.17
2019-05-04T12:54:03.484Z,6.00
2019-05-04T12:56:32.017Z,3.07
2019-05-04T12:59:00.567Z,3.00
2019-05-04T13:01:29.188Z,3.43
2019-05-04T13:03:57.759Z,3.40
2019-05-04T13:06:26.290Z,7.23
2019-05-04T13:08:54.889Z,4.23
2019-05-04T13:11:25.065Z,2.23
2019-05-04T13:13:53.730Z,2.80
2019-05-04T13:16:22.295Z,2.70
2019-05-04T13:18:54.537Z,1.93
2019-05-04T13:21:24.672Z,1.50
2019-05-04T13:23:54.723Z,4.20
2019-05-04T13:26:25.519Z,5.90
2019-05-04T13:28:54.939Z,1.60
2019-05-04T13:31:25.521Z,7.70
2019-05-04T13:33:55.542Z,2.00
2019-05-04T13:36:24.735Z,3.47
2019-05-04T13:38:55.925Z,3.50
2019-05-04T13:41:25.421Z,2.40
2019-05-04T13:43:55.063Z,1.50
2019-05-04T13:46:25.124Z,1.83
2019-05-04T13:48:55.633Z,2.50
2019-05-04T13:51:25.482Z,1.73
2019-05-04T13:53:56.504Z,3.60
2019-05-04T13:56:35.256Z,3.07
2019-05-04T13:59:20.754Z,3.30
2019-05-04T14:02:06.278Z,3.97
2019-05-04T14:04:39.264Z,2.60
2019-05-04T14:07:07.818Z,3.30
2019-05-04T14:09:36.430Z,3.67
2019-05-04T14:12:05.313Z,4.43
2019-05-04T14:14:43.348Z,3.40
2019-05-04T14:17:04.805Z,3.77
2019-05-04T14:19:34.879Z,4.20
2019-05-04T14:22:04.509Z,3.10
2019-05-04T14:24:34.289Z,3.50
2019-05-04T14:27:04.377Z,2.97
2019-05-04T14:29:34.761Z,3.73
2019-05-04T14:32:05.098Z,3.47
2019-05-04T14:34:34.828Z,5.30
2019-05-04T14:37:05.589Z,2.20
2019-05-04T14:39:34.421Z,2.33
2019-05-04T14:42:05.317Z,2.20
2019-05-04T14:44:41.185Z,2.37
2019-05-04T14:47:20.249Z,2.40
2019-05-04T14:49:48.781Z,2.60
2019-05-04T14:52:17.388Z,1.90
2019-05-04T14:54:45.951Z,2.23
2019-05-04T14:57:15.490Z,2.33
2019-05-04T14:59:44.765Z,1.63
2019-05-04T15:02:15.605Z,1.53
2019-05-04T15:04:44.618Z,1.40
2019-05-04T15:07:14.404Z,1.60
2019-05-04T15:09:44.961Z,2.00
2019-05-04T15:12:14.721Z,1.47
2019-05-04T15:14:45.211Z,1.00
2019-05-04T15:17:14.648Z,0.93
2019-05-04T15:20:03.515Z,1.07
2019-05-04T15:22:34.245Z,1.10
2019-05-04T15:25:05.014Z,1.67
2019-05-04T15:27:34.999Z,0.73
2019-05-04T15:30:05.671Z,2.40
2019-05-04T15:32:34.940Z,1.00
2019-05-04T15:35:05.505Z,2.97
2019-05-04T15:37:35.014Z,1.53
2019-05-04T15:40:06.497Z,1.10
2019-05-04T15:42:35.663Z,0.70
2019-05-04T15:45:05.762Z,1.10
2019-05-04T15:47:34.881Z,3.43
2019-05-04T15:50:07.189Z,0.60
2019-05-04T15:52:44.384Z,0.70
2019-05-04T15:55:14.812Z,0.50
2019-05-04T15:58:00.418Z,1.20
2019-05-04T16:00:30.758Z,0.70
2019-05-04T16:02:59.309Z,1.35
2019-05-04T16:05:27.937Z,1.82
2019-05-04T16:07:56.467Z,1.35
2019-05-04T16:10:25.106Z,0.50
2019-05-04T16:12:54.743Z,0.40
2019-05-04T16:15:26.422Z,0.50
2019-05-04T16:17:53.725Z,0.50
2019-05-04T16:20:24.319Z,3.33
2019-05-04T16:22:52.625Z,0.78
2019-05-04T16:25:21.251Z,2.27
2019-05-04T16:27:49.792Z,0.60
2019-05-04T16:30:18.779Z,0.45
2019-05-04T16:32:47.304Z,0.50
2019-05-04T16:35:16.297Z,2.35
2019-05-04T16:37:45.287Z,0.50
2019-05-04T16:40:14.547Z,0.95
2019-05-04T16:42:45.065Z,0.50
2019-05-04T16:45:13.696Z,0.60
2019-05-04T16:47:42.238Z,0.80
2019-05-04T16:50:14.416Z,0.70
2019-05-04T16:52:54.284Z,0.70
2019-05-04T16:55:22.861Z,0.60
2019-05-04T16:57:51.400Z,0.60
2019-05-04T17:00:22.043Z,0.70
2019-05-04T17:03:04.215Z,0.60
2019-05-04T17:05:34.168Z,0.60
2019-05-04T17:08:05.008Z,0.80
2019-05-04T17:10:34.426Z,0.65
2019-05-04T17:13:05.000Z,0.60
2019-05-04T17:15:34.993Z,0.50
2019-05-04T17:18:05.155Z,1.90
2019-05-04T17:20:35.615Z,6.20
2019-05-04T17:23:04.702Z,0.80
2019-05-04T17:25:35.169Z,0.90
2019-05-04T17:28:05.423Z,0.93
2019-05-04T17:30:36.000Z,0.95
2019-05-04T17:33:04.806Z,1.50
2019-05-04T17:35:34.900Z,1.07
2019-05-04T17:38:04.930Z,1.15
2019-05-04T17:40:35.502Z,1.20
2019-05-04T17:43:18.312Z,1.30
2019-05-04T17:45:46.876Z,10.20
2019-05-04T17:48:15.482Z,2.42
2019-05-04T17:50:45.033Z,1.00
2019-05-04T17:53:14.723Z,0.85
2019-05-04T17:55:43.977Z,0.93
2019-05-04T17:58:12.592Z,0.90
2019-05-04T18:00:44.932Z,1.80
2019-05-04T18:03:26.503Z,0.80
2019-05-04T18:05:55.171Z,3.47
2019-05-04T18:08:24.900Z,2.25
2019-05-04T18:10:55.108Z,1.30
2019-05-04T18:13:34.630Z,1.57
2019-05-04T18:16:04.843Z,1.02
2019-05-04T18:18:38.258Z,1.35
2019-05-04T18:21:07.049Z,1.17
2019-05-04T18:23:35.598Z,1.57
2019-05-04T18:26:04.390Z,0.90
2019-05-04T18:28:33.108Z,1.10
2019-05-04T18:31:01.629Z,1.57
2019-05-04T18:33:30.333Z,1.80
2019-05-04T18:35:58.851Z,1.30
2019-05-04T18:38:27.474Z,1.98
2019-05-04T18:40:56.146Z,1.90
2019-05-04T18:43:35.520Z,2.00
2019-05-04T18:46:08.687Z,1.67
2019-05-04T18:48:38.928Z,1.75
2019-05-04T18:51:07.622Z,2.85
2019-05-04T18:53:36.156Z,1.70
2019-05-04T18:56:25.306Z,1.70
2019-05-04T18:58:54.816Z,3.20
2019-05-04T19:01:25.258Z,1.60
2019-05-04T19:03:55.052Z,1.80
2019-05-04T19:06:25.483Z,2.12
2019-05-04T19:08:55.065Z,1.80
2019-05-04T19:11:23.782Z,1.60
2019-05-04T19:13:54.764Z,2.08
2019-05-04T19:16:25.009Z,1.98
2019-05-04T19:18:54.946Z,1.60
2019-05-04T19:21:24.250Z,1.37
2019-05-04T19:23:54.603Z,2.27
2019-05-04T19:26:24.423Z,2.00
2019-05-04T19:28:53.078Z,1.80
2019-05-04T19:31:26.093Z,2.17
2019-05-04T19:33:54.762Z,1.85
2019-05-04T19:36:23.296Z,1.95
2019-05-04T19:38:51.825Z,1.92
2019-05-04T19:41:20.392Z,3.08
2019-05-04T19:43:55.037Z,3.12
2019-05-04T19:46:25.296Z,2.55
2019-05-04T19:48:55.482Z,2.72
2019-05-04T19:51:25.152Z,3.25
2019-05-04T19:53:53.920Z,2.87
2019-05-04T19:56:24.778Z,2.60
2019-05-04T19:58:54.475Z,2.92
2019-05-04T20:01:25.174Z,2.70
2019-05-04T20:03:54.791Z,3.27
2019-05-04T20:06:26.710Z,2.92
2019-05-04T20:09:09.014Z,2.50
2019-05-04T20:11:44.071Z,3.40
2019-05-04T20:14:12.452Z,3.40
2019-05-04T20:16:40.977Z,3.08
2019-05-04T20:19:09.533Z,7.37
2019-05-04T20:21:38.071Z,4.45
2019-05-04T20:24:06.822Z,4.30
2019-05-04T20:26:35.387Z,4.17
2019-05-04T20:29:04.068Z,4.30
2019-05-04T20:31:34.564Z,8.90
2019-05-04T20:34:04.753Z,13.58
2019-05-04T20:36:34.377Z,12.85
2019-05-04T20:39:04.005Z,3.65
2019-05-04T20:41:38.193Z,3.90
2019-05-04T20:44:08.130Z,3.02
2019-05-04T20:46:47.337Z,3.77
2019-05-04T20:49:24.998Z,3.00
2019-05-04T20:51:54.600Z,5.90
2019-05-04T20:54:25.350Z,2.65
2019-05-04T20:56:54.396Z,3.27
2019-05-04T20:59:25.099Z,2.52
2019-05-04T21:02:15.309Z,3.17
2019-05-04T21:04:45.304Z,2.95
2019-05-04T21:07:15.343Z,2.85
2019-05-04T21:09:43.997Z,3.00
2019-05-04T21:12:12.723Z,3.00
2019-05-04T21:14:41.419Z,2.60
2019-05-04T21:17:17.810Z,2.35
2019-05-04T21:19:47.997Z,3.47
2019-05-04T21:22:19.494Z,3.62
2019-05-04T21:24:48.076Z,3.20
2019-05-04T21:27:16.623Z,4.12
2019-05-04T21:29:45.170Z,3.98
2019-05-04T21:32:16.147Z,3.15
2019-05-04T21:34:45.261Z,4.42
2019-05-04T21:37:15.543Z,3.12
2019-05-04T21:39:46.219Z,2.77
2019-05-04T21:42:14.619Z,3.10
2019-05-04T21:44:45.142Z,3.55
2019-05-04T21:47:21.076Z,3.05
2019-05-04T21:50:00.177Z,3.37
2019-05-04T21:52:28.783Z,2.45
2019-05-04T21:54:57.344Z,2.87
2019-05-04T21:57:25.945Z,2.85
2019-05-04T21:59:55.110Z,3.42
2019-05-04T22:02:25.655Z,3.52
2019-05-04T22:04:56.191Z,4.85
2019-05-04T22:07:24.954Z,3.70
2019-05-04T22:09:53.736Z,2.47
2019-05-04T22:12:24.335Z,4.47
2019-05-04T22:14:52.539Z,3.58
2019-05-04T22:17:21.238Z,3.60
2019-05-04T22:19:49.763Z,3.37
2019-05-04T22:22:18.408Z,5.58
2019-05-04T22:24:47.084Z,3.12
2019-05-04T22:27:15.628Z,3.95
2019-05-04T22:29:44.262Z,3.92
2019-05-04T22:32:14.709Z,2.83
2019-05-04T22:34:44.943Z,3.17
2019-05-04T22:37:17.902Z,4.37
2019-05-04T22:39:46.527Z,3.33
2019-05-04T22:42:15.379Z,3.55
2019-05-04T22:44:44.367Z,4.15
2019-05-04T22:47:12.930Z,3.60
2019-05-04T22:49:41.466Z,3.37
2019-05-04T22:52:15.465Z,4.08
2019-05-04T22:54:43.481Z,3.70
2019-05-04T22:57:16.879Z,3.42
2019-05-04T22:59:59.345Z,3.58
2019-05-04T23:02:29.548Z,3.55
2019-05-04T23:04:59.873Z,3.50
2019-05-04T23:07:28.411Z,2.98
2019-05-04T23:09:57.109Z,4.53
2019-05-04T23:12:25.783Z,4.30
2019-05-04T23:14:56.270Z,2.52
2019-05-04T23:17:24.746Z,3.58
2019-05-04T23:19:54.634Z,3.02
2019-05-04T23:22:31.136Z,4.40
2019-05-04T23:24:59.818Z,3.90
2019-05-04T23:27:28.422Z,4.90
2019-05-04T23:29:57.052Z,5.92
2019-05-04T23:32:25.752Z,4.80
2019-05-04T23:34:54.900Z,4.85
2019-05-04T23:37:24.960Z,6.28
2019-05-04T23:39:55.094Z,4.25
2019-05-04T23:42:23.651Z,3.60
2019-05-04T23:44:54.486Z,4.65
2019-05-04T23:47:26.697Z,4.20
2019-05-04T23:49:55.237Z,4.90
2019-05-04T23:52:25.169Z,4.72
2019-05-04T23:54:55.057Z,5.70
2019-05-04T23:57:23.833Z,6.28
2019-05-04T23:59:52.372Z,4.65
